Time;durP1;ratioP1;P1;durP2;ratioP2;P2;SDS_P1;SDS_P2;PMS_P1;PMS_P2;Temp;Humidity;BMP_temperature;BMP_pressure;BME280_temperature;BME280_humidity;BME280_pressure;Samples;Min_cycle;Max_cycle;Signal;HPM_P1;HPM_P2
2022/06/02 00:01:13;;;;;;;6.10;3.72;;;;;;;15.73;59.66;100408.97;5028485;28;20099;-65
2022/06/02 00:04:12;;;;;;;4.93;3.30;;;;;;;15.88;59.33;100402.13;5031710;28;20088;-65
2022/06/02 00:06:45;;;;;;;4.10;3.30;;;;;;;15.65;59.41;100400.50;5031855;28;20433;-65
2022/06/02 00:09:25;;;;;;;5.05;3.78;;;;;;;15.60;59.66;100402.41;5032367;28;20071;-65
2022/06/02 00:12:06;;;;;;;6.22;3.83;;;;;;;15.58;59.54;100410.44;5027354;28;20033;-65
2022/06/02 00:14:58;;;;;;;4.13;3.45;;;;;;;15.48;59.95;100407.31;5027368;28;20033;-65
2022/06/02 00:17:47;;;;;;;4.97;3.35;;;;;;;15.40;60.30;100406.78;5032200;28;20064;-64
2022/06/02 00:20:39;;;;;;;6.53;3.85;;;;;;;15.75;61.43;100405.31;5030925;28;20056;-65
2022/06/02 00:23:41;;;;;;;6.95;4.32;;;;;;;15.10;62.00;100408.88;5013275;28;20041;-65
2022/06/02 00:26:39;;;;;;;4.45;3.45;;;;;;;15.11;61.74;100415.03;5028930;28;20038;-66
2022/06/02 00:29:08;;;;;;;5.70;3.85;;;;;;;15.01;61.47;100420.69;5028976;28;20037;-66
2022/06/02 00:31:40;;;;;;;5.35;4.45;;;;;;;15.03;61.53;100416.19;5036218;28;20044;-64
2022/06/02 00:34:17;;;;;;;6.95;5.35;;;;;;;15.13;61.30;100418.47;5035275;28;20962;-65
2022/06/02 00:37:20;;;;;;;6.88;5.35;;;;;;;14.97;62.41;100420.88;5035481;28;20057;-65
2022/06/02 00:39:47;;;;;;;11.23;6.13;;;;;;;15.00;61.52;100423.38;5029993;28;20029;-66
2022/06/02 00:42:28;;;;;;;7.65;5.40;;;;;;;14.90;61.83;100427.31;5036100;28;20037;-65
2022/06/02 00:45:00;;;;;;;8.50;5.57;;;;;;;14.91;61.91;100429.88;5030949;28;20091;-66
2022/06/02 00:47:50;;;;;;;8.05;5.70;;;;;;;14.80;62.14;100432.06;5035933;28;20734;-66
2022/06/02 00:50:49;;;;;;;6.28;4.93;;;;;;;14.68;62.81;100433.44;5036027;28;20033;-65
2022/06/02 00:53:38;;;;;;;7.38;4.72;;;;;;;14.77;62.46;100432.22;5032850;28;20400;-65
2022/06/02 00:59:35;;;;;;;6.28;4.88;;;;;;;14.82;62.22;100439.97;5035879;28;20095;-66
2022/06/02 01:02:01;;;;;;;4.88;4.38;;;;;;;14.74;62.37;100435.81;5031287;28;20128;-65
2022/06/02 01:04:26;;;;;;;5.90;4.82;;;;;;;14.72;62.27;100434.16;5034863;28;20175;-65
2022/06/02 01:07:34;;;;;;;5.35;3.92;;;;;;;14.72;62.32;100428.88;5034958;28;20372;-66
2022/06/02 01:10:09;;;;;;;6.30;4.20;;;;;;;14.69;62.16;100429.88;5006871;28;20041;-66
2022/06/02 01:13:03;;;;;;;3.75;3.40;;;;;;;14.68;62.62;100438.72;5035436;28;20057;-66
2022/06/02 01:15:43;;;;;;;7.18;4.90;;;;;;;14.63;62.70;100434.50;5035626;28;20116;-65
2022/06/02 01:18:43;;;;;;;5.28;3.95;;;;;;;14.54;63.47;100441.00;5035411;28;20121;-65
2022/06/02 01:21:18;;;;;;;6.18;5.38;;;;;;;14.50;63.56;100439.41;5032004;28;20021;-64
2022/06/02 01:24:12;;;;;;;7.25;4.95;;;;;;;14.53;63.18;100437.50;5035139;28;20033;-66
2022/06/02 01:27:06;;;;;;;7.07;5.03;;;;;;;14.43;63.51;100438.72;5049722;28;20388;-65
2022/06/02 01:30:09;;;;;;;7.43;5.50;;;;;;;14.44;63.76;100434.28;5035283;28;20411;-65
2022/06/02 01:33:16;;;;;;;5.93;4.85;;;;;;;14.41;63.98;100439.72;5021216;28;20033;-65
2022/06/02 01:36:15;;;;;;;6.70;4.40;;;;;;;14.41;64.15;100435.28;5034416;28;20037;-65
2022/06/02 01:39:13;;;;;;;6.25;4.30;;;;;;;14.40;63.73;100438.84;5034652;28;20113;-66
2022/06/02 01:41:56;;;;;;;8.10;4.97;;;;;;;14.61;62.97;100433.72;5034073;28;20069;-66
2022/06/02 01:44:56;;;;;;;4.88;4.38;;;;;;;14.74;62.85;100437.63;5035788;28;20040;-67
2022/06/02 01:47:35;;;;;;;11.40;10.23;;;;;;;14.82;62.57;100432.03;5034887;28;20538;-66
2022/06/02 01:50:15;;;;;;;13.52;12.23;;;;;;;14.90;62.42;100440.53;5035236;28;20025;-66
2022/06/02 01:53:02;;;;;;;12.52;11.05;;;;;;;14.98;61.97;100444.59;5035590;28;20049;-67
2022/06/02 01:56:04;;;;;;;7.68;6.82;;;;;;;15.17;61.56;100441.25;5035555;28;20442;-65
2022/06/02 01:58:41;;;;;;;9.13;5.55;;;;;;;15.22;61.15;100440.13;5035462;28;20025;-65
2022/06/02 02:01:37;;;;;;;6.45;5.22;;;;;;;15.37;60.44;100433.38;5035274;28;20057;-66
2022/06/02 02:04:30;;;;;;;5.90;4.55;;;;;;;15.73;59.51;100446.91;5035248;28;20056;-65
2022/06/02 02:07:13;;;;;;;5.28;4.40;;;;;;;15.89;58.75;100440.97;5035284;28;20481;-66
2022/06/02 02:10:02;;;;;;;5.38;4.45;;;;;;;15.96;58.60;100443.31;5035473;28;20029;-66
2022/06/02 02:12:52;;;;;;;6.63;5.18;;;;;;;16.05;58.59;100446.47;5035397;28;20440;-65
2022/06/02 02:15:34;;;;;;;6.35;5.15;;;;;;;16.08;58.44;100451.63;5035239;28;20033;-65
2022/06/02 02:18:45;;;;;;;6.15;5.32;;;;;;;16.02;58.65;100445.66;5035491;28;20110;-67
2022/06/02 02:21:57;;;;;;;6.72;5.22;;;;;;;16.15;58.18;100458.38;5012716;28;20042;-66
2022/06/02 02:24:32;;;;;;;7.82;6.03;;;;;;;16.17;58.21;100453.91;4974141;28;20031;-66
2022/06/02 02:27:00;;;;;;;7.18;5.55;;;;;;;16.25;57.82;100454.41;4974231;28;20126;-66
2022/06/02 02:29:36;;;;;;;8.95;6.22;;;;;;;16.24;57.80;100453.56;5007470;28;20037;-67
2022/06/02 02:32:27;;;;;;;7.43;5.68;;;;;;;16.17;58.06;100449.47;5034697;28;20033;-66
2022/06/02 02:35:41;;;;;;;8.18;6.10;;;;;;;16.16;58.14;100458.34;5033961;28;20029;-67
2022/06/02 02:38:24;;;;;;;9.15;6.30;;;;;;;16.09;58.07;100443.63;5009963;28;20042;-66
2022/06/02 02:40:59;;;;;;;8.15;6.07;;;;;;;16.13;58.16;100447.88;5034359;28;20112;-65
2022/06/02 02:43:30;;;;;;;5.63;4.97;;;;;;;16.19;58.04;100438.78;5034752;28;20083;-66
2022/06/02 02:46:10;;;;;;;7.22;5.30;;;;;;;16.24;57.85;100442.97;5020130;28;20441;-66
2022/06/02 02:49:04;;;;;;;5.82;4.88;;;;;;;16.32;57.62;100439.97;5013524;28;20425;-66
2022/06/02 02:52:04;;;;;;;6.38;4.93;;;;;;;16.29;57.79;100442.75;5014654;28;20042;-66
2022/06/02 02:54:42;;;;;;;6.45;4.78;;;;;;;16.31;57.44;100440.03;5013915;28;20034;-66
2022/06/02 02:57:36;;;;;;;6.18;5.30;;;;;;;16.39;57.44;100440.53;5014639;28;20033;-67
2022/06/02 03:00:15;;;;;;;7.95;5.30;;;;;;;16.44;57.19;100436.78;5014180;28;20051;-66
2022/06/02 03:02:46;;;;;;;6.43;4.88;;;;;;;16.62;56.85;100442.16;5032873;28;20141;-65
2022/06/02 03:05:23;;;;;;;7.28;4.68;;;;;;;16.42;57.06;100446.56;5033370;28;20061;-65
2022/06/02 03:07:49;;;;;;;7.45;5.18;;;;;;;16.34;57.26;100432.78;5021215;28;20045;-64
2022/06/02 03:10:17;;;;;;;4.63;4.18;;;;;;;16.23;57.48;100435.91;5026844;28;20033;-65
2022/06/02 03:13:07;;;;;;;6.28;4.32;;;;;;;16.10;57.67;100439.19;5020748;28;20042;-65
2022/06/02 03:15:53;;;;;;;6.45;4.55;;;;;;;16.06;57.82;100437.59;5014317;28;20041;-65
2022/06/02 03:18:24;;;;;;;3.97;3.58;;;;;;;16.00;58.00;100434.28;5014681;28;20128;-65
2022/06/02 03:21:08;;;;;;;4.75;4.07;;;;;;;16.00;57.97;100431.63;5014337;28;20029;-66
2022/06/02 03:23:55;;;;;;;4.75;4.15;;;;;;;15.88;58.31;100434.81;5014107;28;20040;-65
2022/06/02 03:26:20;;;;;;;7.32;4.95;;;;;;;15.68;58.74;100438.31;5030304;28;20033;-66
2022/06/02 03:29:01;;;;;;;8.25;6.28;;;;;;;15.44;59.28;100445.44;5016551;28;20359;-65
2022/06/02 03:31:41;;;;;;;11.80;7.45;;;;;;;15.28;59.59;100449.63;5032330;28;20106;-67
2022/06/02 03:34:28;;;;;;;18.23;10.07;;;;;;;15.24;59.97;100466.53;5014180;28;20033;-66
2022/06/02 03:37:11;;;;;;;14.65;9.85;;;;;;;15.44;59.47;100471.03;5024007;28;20477;-66
2022/06/02 03:40:07;;;;;;;15.77;9.57;;;;;;;15.46;59.45;100474.50;5033830;28;20033;-66
2022/06/02 03:42:54;;;;;;;14.18;8.95;;;;;;;15.48;59.31;100484.13;5032969;28;20111;-65
2022/06/02 03:45:31;;;;;;;10.73;7.45;;;;;;;15.38;59.40;100489.81;5030552;28;20041;-66
2022/06/02 03:48:14;;;;;;;13.10;6.22;;;;;;;15.42;59.26;100492.28;5033357;28;20540;-66
2022/06/02 03:51:01;;;;;;;9.95;6.70;;;;;;;15.42;59.53;100505.53;5031999;28;20076;-66
2022/06/02 03:53:36;;;;;;;7.55;5.45;;;;;;;15.42;59.41;100510.81;5032370;28;20036;-65
2022/06/02 03:56:30;;;;;;;7.10;5.53;;;;;;;15.41;59.58;100509.09;5032879;28;20064;-65
2022/06/02 03:59:02;;;;;;;13.63;5.35;;;;;;;15.48;59.25;100505.28;5032913;28;20037;-65
2022/06/02 04:01:36;;;;;;;8.02;5.07;;;;;;;15.40;59.36;100502.09;5031086;28;20038;-66
2022/06/02 04:04:04;;;;;;;4.93;4.22;;;;;;;15.64;58.83;100499.34;5032782;28;20049;-66
2022/06/02 04:06:44;;;;;;;5.50;4.57;;;;;;;15.69;58.88;100482.41;5028752;28;20026;-66
2022/06/02 04:09:55;;;;;;;5.47;4.15;;;;;;;15.94;58.13;100486.69;5021295;28;20078;-65
2022/06/02 04:15:47;;;;;;;5.05;3.72;;;;;;;16.14;57.56;100489.34;5032644;28;20120;-65
2022/06/02 04:18:39;;;;;;;5.07;4.55;;;;;;;16.18;57.67;100495.38;5033249;28;20109;-65
2022/06/02 04:21:57;;;;;;;7.47;4.97;;;;;;;16.28;57.44;100502.03;5015464;28;20077;-66
2022/06/02 04:24:52;;;;;;;5.82;4.57;;;;;;;16.51;56.70;100498.34;5013363;28;20124;-65
2022/06/02 04:27:25;;;;;;;6.18;4.53;;;;;;;16.65;56.33;100506.56;5013701;28;20478;-66
2022/06/02 04:30:04;;;;;;;7.78;5.80;;;;;;;16.56;56.70;100500.81;5013795;28;20065;-67
2022/06/02 04:32:50;;;;;;;7.30;5.47;;;;;;;16.68;56.42;100487.00;5025100;28;20115;-66
2022/06/02 04:35:48;;;;;;;8.60;5.20;;;;;;;16.95;56.04;100483.09;5033337;28;20032;-67
2022/06/02 04:38:44;;;;;;;4.95;4.20;;;;;;;17.17;55.48;100479.44;5009827;28;20044;-66
2022/06/02 04:41:23;;;;;;;6.68;4.35;;;;;;;17.42;54.84;100493.25;5015507;28;20026;-66
2022/06/02 04:44:26;;;;;;;4.60;3.80;;;;;;;17.28;55.19;100493.09;5013608;28;20080;-65
2022/06/02 04:47:22;;;;;;;6.07;4.65;;;;;;;16.96;55.79;100492.78;5013479;28;20038;-66
2022/06/02 04:50:02;;;;;;;6.30;3.53;;;;;;;16.84;56.45;100495.16;5013459;28;20093;-65
2022/06/02 04:52:43;;;;;;;4.00;3.50;;;;;;;16.58;57.38;100493.63;5013428;28;20029;-65
2022/06/02 04:55:31;;;;;;;4.07;3.20;;;;;;;16.63;57.13;100502.25;5013484;28;20092;-66
2022/06/02 04:58:09;;;;;;;4.53;3.35;;;;;;;17.02;56.25;100502.25;5013203;28;20026;-65
2022/06/02 05:00:56;;;;;;;5.60;4.00;;;;;;;17.19;55.97;100497.00;5012210;28;20030;-66
2022/06/02 05:03:50;;;;;;;4.55;3.70;;;;;;;17.44;55.54;100502.03;5030144;28;20049;-66
2022/06/02 05:06:50;;;;;;;5.22;3.70;;;;;;;17.73;54.75;100503.25;5031412;28;20381;-65
2022/06/02 05:09:26;;;;;;;4.28;3.20;;;;;;;17.91;54.25;100492.69;5023142;28;20037;-63
2022/06/02 05:11:57;;;;;;;7.35;4.13;;;;;;;18.05;53.97;100502.63;5029648;28;20033;-64
2022/06/02 05:14:32;;;;;;;5.22;4.40;;;;;;;18.15;53.79;100514.50;5032132;28;20048;-65
2022/06/02 05:17:40;;;;;;;6.43;4.78;;;;;;;18.00;54.06;100500.22;5034425;28;20033;-66
2022/06/02 05:20:42;;;;;;;6.53;4.60;;;;;;;17.94;54.33;100506.69;5022667;28;20052;-65
2022/06/02 05:23:44;;;;;;;7.45;5.05;;;;;;;18.05;54.04;100502.63;5032965;28;20473;-65
2022/06/02 05:26:31;;;;;;;6.45;4.88;;;;;;;18.19;54.03;100510.75;5014113;28;20128;-65
2022/06/02 05:28:58;;;;;;;6.97;5.88;;;;;;;18.40;53.57;100520.31;5027748;28;20060;-65
2022/06/02 05:31:59;;;;;;;7.55;5.32;;;;;;;18.34;53.79;100528.59;5035388;28;20459;-65
2022/06/02 05:34:43;;;;;;;6.10;5.07;;;;;;;18.51;53.70;100532.16;5034821;28;20171;-65
2022/06/02 05:37:21;;;;;;;7.88;5.45;;;;;;;18.80;53.19;100528.03;5033052;28;20052;-66
2022/06/02 05:39:52;;;;;;;7.72;5.75;;;;;;;19.11;52.50;100532.53;5031309;28;20033;-66
2022/06/02 05:42:18;;;;;;;7.40;5.53;;;;;;;19.35;51.96;100536.53;5036133;28;20035;-65
2022/06/02 05:44:58;;;;;;;8.70;6.13;;;;;;;19.31;51.61;100534.97;5035311;28;20038;-65
2022/06/02 05:48:00;;;;;;;8.80;6.55;;;;;;;19.26;52.34;100541.50;5033550;28;20056;-65
2022/06/02 05:50:38;;;;;;;8.52;6.80;;;;;;;19.12;52.36;100543.13;5028727;28;20068;-66
2022/06/02 05:53:20;;;;;;;7.95;5.78;;;;;;;19.33;52.06;100543.72;5034779;28;20116;-67
2022/06/02 05:56:03;;;;;;;7.13;5.18;;;;;;;19.35;51.87;100544.53;5035582;28;20026;-66
2022/06/02 05:58:52;;;;;;;6.15;4.50;;;;;;;19.27;52.34;100545.88;5032891;28;20041;-66
2022/06/02 06:01:31;;;;;;;5.43;4.30;;;;;;;19.32;52.17;100555.34;5016004;28;20033;-66
2022/06/02 06:04:16;;;;;;;4.45;3.95;;;;;;;19.34;51.80;100561.44;5019040;28;20095;-67
2022/06/02 06:06:54;;;;;;;6.60;4.22;;;;;;;18.79;52.83;100551.13;5034524;28;20499;-66
2022/06/02 06:09:32;;;;;;;5.68;3.45;;;;;;;19.23;52.16;100555.84;5034819;28;20166;-66
2022/06/02 06:12:17;;;;;;;4.97;3.53;;;;;;;19.10;52.04;100562.78;5047525;28;20517;-66
2022/06/02 06:15:05;;;;;;;5.90;4.22;;;;;;;19.05;52.13;100556.84;5035209;28;20048;-65
2022/06/02 06:17:51;;;;;;;4.85;3.83;;;;;;;19.30;51.83;100559.03;5034742;28;20520;-66
2022/06/02 06:20:47;;;;;;;4.88;3.65;;;;;;;19.35;51.68;100555.19;5030925;28;20037;-65
2022/06/02 06:23:34;;;;;;;5.05;3.40;;;;;;;19.57;51.09;100567.28;5044251;28;20068;-65
2022/06/02 06:26:14;;;;;;;5.20;3.33;;;;;;;19.48;50.96;100566.00;5035063;28;20033;-66
2022/06/02 06:29:02;;;;;;;3.65;2.67;;;;;;;19.48;51.24;100566.00;5030394;28;20599;-66
2022/06/02 06:32:01;;;;;;;6.07;3.20;;;;;;;19.43;51.28;100571.59;5030073;28;20079;-66
2022/06/02 06:34:37;;;;;;;4.85;2.88;;;;;;;19.21;51.13;100568.38;5028589;28;20025;-66
2022/06/02 06:37:24;;;;;;;4.63;2.65;;;;;;;18.96;51.53;100571.53;5031625;28;20473;-66
2022/06/02 06:40:11;;;;;;;3.20;2.47;;;;;;;18.52;51.86;100587.97;5025533;28;20037;-67
2022/06/02 06:43:08;;;;;;;3.85;2.55;;;;;;;18.42;52.70;100587.56;5027360;28;20050;-65
2022/06/02 06:45:57;;;;;;;3.65;2.65;;;;;;;18.75;51.80;100589.50;5025814;28;20604;-64
2022/06/02 06:48:25;;;;;;;4.03;2.60;;;;;;;19.07;51.08;100581.56;5014955;28;20477;-66
2022/06/02 06:50:58;;;;;;;3.30;2.70;;;;;;;19.14;50.27;100578.50;5034581;28;20385;-66
2022/06/02 06:53:26;;;;;;;3.40;2.50;;;;;;;19.30;50.43;100594.50;5034234;28;20071;-66
2022/06/02 06:56:22;;;;;;;4.55;2.42;;;;;;;19.51;49.15;100588.94;5034452;28;20040;-65
2022/06/02 06:59:07;;;;;;;2.55;2.05;;;;;;;20.05;48.56;100576.16;5030037;28;20086;-66
2022/06/02 07:01:47;;;;;;;3.67;2.30;;;;;;;20.21;47.44;100582.31;5032299;28;20365;-66
2022/06/02 07:04:15;;;;;;;3.28;2.00;;;;;;;20.31;46.79;100582.66;5035670;28;20049;-66
2022/06/02 07:06:48;;;;;;;2.97;1.92;;;;;;;19.75;46.77;100582.31;5031897;28;20048;-66
2022/06/02 07:09:50;;;;;;;4.93;1.85;;;;;;;19.84;46.94;100592.44;5028481;28;20037;-65
2022/06/02 07:15:10;;;;;;;2.50;2.28;;;;;;;20.11;46.38;100583.81;5033599;28;20048;-66
2022/06/02 07:18:00;;;;;;;2.40;1.75;;;;;;;20.66;45.76;100577.88;5028064;28;20033;-65
2022/06/02 07:20:54;;;;;;;2.13;1.70;;;;;;;20.17;46.35;100600.28;5032712;28;20041;-65
2022/06/02 07:23:40;;;;;;;2.60;1.90;;;;;;;20.11;45.94;100589.16;5024162;28;20049;-66
2022/06/02 07:26:14;;;;;;;3.95;1.73;;;;;;;20.09;46.42;100591.03;5031440;28;20064;-65
2022/06/02 07:28:53;;;;;;;3.35;1.40;;;;;;;20.12;45.79;100580.19;5032038;28;20033;-65
2022/06/02 07:31:43;;;;;;;1.83;1.27;;;;;;;20.44;45.79;100591.63;5028491;28;20030;-64
2022/06/02 07:34:32;;;;;;;4.00;1.40;;;;;;;20.72;45.69;100612.22;5030075;28;20120;-67
2022/06/02 07:37:08;;;;;;;1.67;1.27;;;;;;;20.84;45.22;100607.97;5029940;28;20026;-65
2022/06/02 07:39:52;;;;;;;1.40;1.20;;;;;;;20.88;44.11;100607.69;5031553;28;20092;-65
2022/06/02 07:42:42;;;;;;;1.83;1.20;;;;;;;20.79;43.67;100610.91;5031586;28;20163;-66
2022/06/02 07:45:41;;;;;;;2.45;1.50;;;;;;;20.48;43.07;100614.53;5022935;28;20523;-64
2022/06/02 07:48:06;;;;;;;3.22;1.30;;;;;;;20.86;44.58;100619.41;5032531;28;20122;-65
2022/06/02 07:50:34;;;;;;;1.10;0.88;;;;;;;21.12;43.41;100615.13;5032811;28;20071;-65
2022/06/02 07:53:35;;;;;;;1.75;1.23;;;;;;;20.76;43.56;100616.44;5032508;28;20044;-65
2022/06/02 07:56:07;;;;;;;2.53;1.20;;;;;;;21.05;43.97;100617.31;4999949;28;20042;-64
2022/06/02 07:58:38;;;;;;;2.33;0.90;;;;;;;21.29;43.73;100617.63;5031829;28;20036;-64
2022/06/02 08:01:12;;;;;;;2.75;1.10;;;;;;;21.55;42.53;100623.19;5032106;28;20423;-66
2022/06/02 08:04:14;;;;;;;1.95;1.00;;;;;;;21.47;41.55;100637.03;5028139;28;20528;-65
2022/06/02 08:06:58;;;;;;;2.45;1.27;;;;;;;21.69;41.32;100628.50;5027042;28;20028;-64
2022/06/02 08:09:45;;;;;;;2.60;1.08;;;;;;;21.47;41.28;100628.16;5032414;28;20516;-64
2022/06/02 08:12:10;;;;;;;1.13;0.95;;;;;;;21.71;42.00;100629.25;5032514;28;20041;-64
2022/06/02 08:14:38;;;;;;;2.85;1.10;;;;;;;21.48;41.11;100643.22;5032489;28;20033;-64
2022/06/02 08:17:16;;;;;;;1.60;1.10;;;;;;;21.67;40.76;100635.78;5032256;28;20045;-64
2022/06/02 08:20:18;;;;;;;1.92;0.90;;;;;;;21.49;40.62;100642.28;5026718;28;20084;-65
2022/06/02 08:23:01;;;;;;;1.50;1.00;;;;;;;21.42;40.52;100643.59;5027363;28;20382;-65
2022/06/02 08:25:57;;;;;;;2.20;0.70;;;;;;;21.34;40.45;100652.97;5031267;28;20041;-64
2022/06/02 08:28:40;;;;;;;2.78;0.70;;;;;;;21.74;40.96;100649.59;5029669;28;20551;-64
2022/06/02 08:31:06;;;;;;;1.92;1.15;;;;;;;21.54;41.71;100658.88;5032274;28;20022;-64
2022/06/02 08:33:38;;;;;;;1.15;0.90;;;;;;;21.46;41.24;100677.19;5032107;28;20083;-64
2022/06/02 08:36:06;;;;;;;1.90;0.90;;;;;;;21.68;41.40;100666.03;5032000;28;20553;-64
2022/06/02 08:39:05;;;;;;;1.80;1.00;;;;;;;22.28;39.55;100650.53;5032288;28;20033;-64
2022/06/02 08:41:42;;;;;;;0.90;0.75;;;;;;;22.00;39.31;100656.81;5032453;28;20041;-63
2022/06/02 08:44:39;;;;;;;1.35;0.93;;;;;;;21.91;39.07;100661.91;5029898;28;20112;-64
2022/06/02 08:47:26;;;;;;;2.58;0.80;;;;;;;22.20;39.70;100674.25;5030811;28;20032;-64
2022/06/02 08:50:23;;;;;;;2.17;0.88;;;;;;;22.43;38.36;100669.22;5030769;28;20033;-63
2022/06/02 08:53:14;;;;;;;1.50;0.82;;;;;;;22.35;38.43;100673.25;5008713;28;20037;-64
2022/06/02 08:55:58;;;;;;;1.27;0.85;;;;;;;22.05;40.00;100675.22;5035729;28;20030;-65
2022/06/02 08:58:23;;;;;;;1.50;0.77;;;;;;;22.17;40.24;100682.50;5032716;28;20128;-64
2022/06/02 09:01:17;;;;;;;1.40;0.90;;;;;;;22.50;38.58;100682.09;5035776;28;20108;-64
2022/06/02 09:04:01;;;;;;;4.80;1.02;;;;;;;21.94;38.57;100680.41;5035576;28;20107;-63
2022/06/02 09:06:50;;;;;;;1.45;0.90;;;;;;;21.76;38.56;100677.97;5034361;28;20029;-64
2022/06/02 09:09:43;;;;;;;1.80;0.90;;;;;;;21.81;40.26;100683.88;5033426;28;20386;-64
2022/06/02 09:12:37;;;;;;;1.40;0.90;;;;;;;22.05;38.63;100680.56;5034741;28;20045;-65
2022/06/02 09:15:19;;;;;;;;;;;;;;;22.25;38.13;100674.81;5036013;28;20029;-65
2022/06/02 09:17:53;;;;;;;3.55;0.90;;;;;;;22.86;38.92;100686.78;5035339;28;20000;-65
2022/06/02 09:20:37;;;;;;;1.65;1.10;;;;;;;23.05;37.11;100683.72;5035375;28;20033;-64
2022/06/02 09:23:27;;;;;;;2.60;1.23;;;;;;;22.95;36.70;100684.50;5035085;28;20040;-65
2022/06/02 09:26:13;;;;;;;1.77;0.95;;;;;;;22.76;37.68;100684.84;5034306;28;20026;-64
2022/06/02 09:28:39;;;;;;;4.93;1.20;;;;;;;22.21;38.76;100681.31;5034803;28;20063;-64
2022/06/02 09:31:35;;;;;;;1.15;0.85;;;;;;;22.10;37.57;100683.81;5027994;28;20034;-65
2022/06/02 09:34:17;;;;;;;2.97;1.00;;;;;;;22.47;36.93;100673.41;5034765;28;20029;-64
2022/06/02 09:37:01;;;;;;;1.93;0.90;;;;;;;22.48;37.05;100681.34;5035119;28;20543;-63
2022/06/02 09:39:44;;;;;;;3.28;1.20;;;;;;;23.13;37.19;100672.47;5034986;28;20033;-64
2022/06/02 09:42:21;;;;;;;2.45;0.90;;;;;;;22.97;37.46;100674.50;5028929;28;20399;-64
2022/06/02 09:45:06;;;;;;;1.95;0.88;;;;;;;22.96;36.49;100678.16;5031405;28;20116;-64
2022/06/02 09:48:02;;;;;;;1.20;0.90;;;;;;;23.70;35.61;100677.44;5034755;28;20033;-64
2022/06/02 09:51:04;;;;;;;1.23;0.70;;;;;;;23.71;33.39;100673.78;5034507;28;20040;-64
2022/06/02 09:53:42;;;;;;;1.15;0.77;;;;;;;23.89;34.82;100678.75;5020783;28;20038;-64
2022/06/02 09:56:24;;;;;;;1.08;0.70;;;;;;;24.02;35.59;100684.97;5027137;28;20095;-64
2022/06/02 09:58:56;;;;;;;1.55;0.90;;;;;;;23.94;34.68;100684.66;5033852;28;20041;-64
2022/06/02 10:01:33;;;;;;;1.00;0.60;;;;;;;23.96;34.83;100690.78;5034924;28;20042;-65
2022/06/02 10:04:14;;;;;;;0.90;0.70;;;;;;;24.03;34.18;100687.53;5034598;28;20048;-64
2022/06/02 10:07:16;;;;;;;0.88;0.70;;;;;;;24.26;33.97;100693.91;5033779;28;20141;-64
2022/06/02 10:10:03;;;;;;;1.63;0.70;;;;;;;24.60;33.30;100691.41;5026828;28;20116;-64
2022/06/02 10:12:57;;;;;;;2.45;1.27;;;;;;;24.69;34.45;100689.84;5036484;28;20033;-64
2022/06/02 10:15:41;;;;;;;2.50;1.00;;;;;;;25.00;33.66;100696.44;5033365;28;20104;-64
2022/06/02 10:18:39;;;;;;;1.88;1.20;;;;;;;25.10;31.71;100699.31;5035056;28;20041;-64
2022/06/02 10:21:29;;;;;;;0.80;0.70;;;;;;;24.57;32.15;100703.22;5034802;28;20484;-64
2022/06/02 10:24:27;;;;;;;0.70;0.60;;;;;;;25.04;33.29;100698.75;5034907;28;20026;-64
2022/06/02 10:27:28;;;;;;;1.48;0.68;;;;;;;25.74;31.02;100696.91;4963498;28;20086;-64
2022/06/02 10:30:11;;;;;;;0.98;0.70;;;;;;;25.74;32.90;100715.75;5004150;28;20046;-63
2022/06/02 10:32:55;;;;;;;1.20;0.70;;;;;;;25.28;33.21;100714.84;5034890;28;20029;-64
2022/06/02 10:35:45;;;;;;;1.85;0.88;;;;;;;24.36;34.26;100720.91;5034779;28;20152;-64
2022/06/02 10:38:21;;;;;;;2.25;0.80;;;;;;;24.14;34.57;100728.81;5034741;28;20473;-63
2022/06/02 10:40:52;;;;;;;1.40;0.80;;;;;;;23.52;37.18;100741.22;5034695;28;20029;-66
2022/06/02 10:43:55;;;;;;;1.75;0.93;;;;;;;22.76;39.16;100749.97;5034531;28;20116;-65
2022/06/02 10:46:27;;;;;;;;;;;;;;;22.02;42.10;100763.72;5034883;28;20469;-65
2022/06/02 10:49:02;;;;;;;2.95;0.80;;;;;;;21.13;44.69;100793.19;5034552;28;20002;-65
2022/06/02 10:51:49;;;;;;;17.10;2.50;;;;;;;23.32;64.14;100817.69;5034542;28;20037;-65
2022/06/02 10:54:26;;;;;;;5.78;1.70;;;;;;;19.56;61.25;100826.75;5034295;28;20040;-65
2022/06/02 10:57:19;;;;;;;2.78;1.48;;;;;;;18.35;59.47;100838.88;5034908;28;20122;-65
2022/06/02 11:00:03;;;;;;;3.65;1.42;;;;;;;18.01;61.35;100836.91;5034544;28;20033;-66
2022/06/02 11:02:38;;;;;;;2.72;1.33;;;;;;;18.06;61.11;100829.56;5034330;28;20085;-65
2022/06/02 11:05:12;;;;;;;3.33;1.15;;;;;;;18.18;61.79;100846.75;5033719;28;20519;-65
2022/06/02 11:08:05;;;;;;;1.42;1.10;;;;;;;18.57;60.45;100835.22;5032942;28;20039;-66
2022/06/02 11:10:46;;;;;;;2.03;1.00;;;;;;;18.82;57.65;100841.09;5033189;28;20087;-65
2022/06/02 11:13:36;;;;;;;3.13;1.15;;;;;;;18.79;55.05;100829.72;5033571;28;20029;-65
2022/06/02 11:16:01;;;;;;;1.83;1.00;;;;;;;19.11;59.14;100841.47;5032728;28;20051;-64
2022/06/02 11:18:30;;;;;;;1.63;1.08;;;;;;;19.52;58.38;100831.38;5033096;28;20491;-65
2022/06/02 11:21:13;;;;;;;1.92;1.02;;;;;;;20.03;55.69;100831.41;5033289;28;20036;-65
2022/06/02 11:24:03;;;;;;;2.75;1.40;;;;;;;20.37;54.31;100844.63;5032789;28;20035;-65
2022/06/02 11:27:05;;;;;;;2.20;1.25;;;;;;;20.52;51.61;100839.44;5031430;28;20087;-66
2022/06/02 11:29:52;;;;;;;1.73;1.00;;;;;;;20.64;48.58;100839.59;5031403;28;20129;-65
2022/06/02 11:32:27;;;;;;;0.95;0.73;;;;;;;20.46;49.22;100845.06;5032562;28;20029;-65
2022/06/02 11:35:06;;;;;;;1.58;0.77;;;;;;;20.52;49.16;100844.78;5027088;28;20041;-65
2022/06/02 11:37:40;;;;;;;1.88;0.70;;;;;;;20.73;49.59;100840.03;5032836;28;20469;-65
2022/06/02 11:40:14;;;;;;;0.88;0.70;;;;;;;20.09;47.89;100844.41;5032838;28;20056;-65
2022/06/02 11:42:49;;;;;;;1.77;0.70;;;;;;;20.81;50.62;100837.78;5031767;28;20033;-65
2022/06/02 11:45:54;;;;;;;3.03;1.08;;;;;;;20.65;45.92;100845.81;5031938;28;20049;-65
2022/06/02 11:48:31;;;;;;;2.88;0.98;;;;;;;20.96;48.91;100854.75;5032625;28;20029;-64
2022/06/02 11:50:56;;;;;;;2.10;0.82;;;;;;;21.47;49.36;100855.38;5027357;28;20036;-65
2022/06/02 11:53:46;;;;;;;1.75;1.00;;;;;;;21.80;44.45;100853.31;5032192;28;20042;-65
2022/06/02 11:56:49;;;;;;;3.80;1.08;;;;;;;22.22;44.49;100861.50;5027848;28;20041;-64
2022/06/02 11:59:38;;;;;;;0.85;0.70;;;;;;;22.23;44.36;100858.75;5032845;28;20044;-63
2022/06/02 12:02:03;;;;;;;1.25;0.90;;;;;;;22.78;45.26;100865.03;5028230;28;20033;-63
2022/06/02 12:04:29;;;;;;;1.17;0.75;;;;;;;22.82;44.50;100864.78;5032247;28;20053;-64
2022/06/02 12:06:54;;;;;;;1.83;0.50;;;;;;;22.58;42.95;100860.97;5030685;28;20140;-65
2022/06/02 12:09:48;;;;;;;1.23;0.45;;;;;;;22.68;39.35;100864.78;5029784;28;20457;-65
2022/06/02 12:12:28;;;;;;;1.08;0.40;;;;;;;22.06;39.61;100878.50;5028844;28;20033;-64
2022/06/02 12:14:57;;;;;;;0.70;0.38;;;;;;;22.47;40.36;100876.88;5028496;28;20037;-64
2022/06/02 12:17:56;;;;;;;0.82;0.63;;;;;;;21.59;40.48;100873.34;5031390;28;20025;-66
2022/06/02 12:20:48;;;;;;;1.60;0.45;;;;;;;21.91;38.76;100874.09;5029067;28;20547;-66
2022/06/02 12:23:22;;;;;;;1.17;0.60;;;;;;;21.85;39.30;100877.13;5027523;28;20037;-63
2022/06/02 12:26:13;;;;;;;0.65;0.40;;;;;;;22.26;37.03;100871.94;5030722;28;20059;-64
2022/06/02 12:28:57;;;;;;;0.80;0.38;;;;;;;22.23;38.31;100866.78;5035576;28;20503;-65
2022/06/02 12:31:48;;;;;;;0.55;0.40;;;;;;;22.35;37.06;100875.84;5035362;28;20037;-65
2022/06/02 12:34:52;;;;;;;1.20;0.65;;;;;;;22.67;35.75;100871.13;5032835;28;20036;-65
2022/06/02 12:37:42;;;;;;;2.83;1.00;;;;;;;22.99;36.66;100855.66;5035587;28;20111;-64
2022/06/02 12:40:29;;;;;;;0.88;0.57;;;;;;;22.63;35.00;100869.59;5035209;28;20029;-65
2022/06/02 12:43:12;;;;;;;1.95;0.98;;;;;;;22.79;34.80;100859.59;5036304;28;20025;-65
2022/06/02 12:45:58;;;;;;;1.83;0.90;;;;;;;22.51;34.91;100889.13;5035666;28;20034;-65
2022/06/02 12:48:45;;;;;;;1.00;0.80;;;;;;;22.48;37.01;100873.25;5036078;28;20025;-64
2022/06/02 12:51:44;;;;;;;1.65;0.80;;;;;;;22.83;36.65;100876.34;5031132;28;20087;-65
2022/06/02 12:54:40;;;;;;;1.65;0.63;;;;;;;22.57;36.78;100886.03;5035877;28;20037;-64